Eleele, HI (96705)

1:08 AM HST on February 08, 2016 (GMT -1000)
Waimea, Hi 96796 | | Change Station
CLOSE
Current Station
Personal Weather Station
Location: Waimea, HI
Elevation: 60 ft
Nearby Weather Stations
Active Advisory: High Surf Advisory

Elev 60 ft 21.95 °N, 159.67 °W | Updated 50 seconds ago

Scattered Clouds
Scattered Clouds
61.8 °F
Feels Like 61.8 °F
N
1.0
Wind Variable Wind from ESE
Gusts 4.0 mph

Today
High -- | Low -- °F
--% Chance of Precip.
Yesterday
High -- | Low -- °F
Precip. -- in
Pressure 30.08 in
Visibility 10.0 miles
Clouds Few 5000 ft
Scattered Clouds 6000 ft
Dew Point 49 °F
Humidity 63%
Rainfall 0.00 in
Snow Depth Not available.
7:13 AM 6:31 PM
Waning Crescent, 0% visible
METAR PHBK 081056Z AUTO 03009KT 10SM FEW050 SCT060 20/09 A3007 RMK AO2 RAE07 SLP185 P0000 T02000089 $
Pressure 30.08 in
Visibility 10.0 miles
Clouds Few 5000 ft
Scattered Clouds 6000 ft
Dew Point 49 °F
Humidity 63%
Rainfall 0.00 in
Snow Depth Not available.
7:13 AM 6:31 PM
Waning Crescent, 0% visible
METAR PHBK 081056Z AUTO 03009KT 10SM FEW050 SCT060 20/09 A3007 RMK AO2 RAE07 SLP185 P0000 T02000089 $

10-Day Weather Forecast

Almanac

Astronomy

Feb. 08, 2016 Rise Set
Actual Time
Civil Twilight
Nautical Twilight
Astronomical Twilight
Moon
Length of Visible Light
Length of Day
Tomorrow will be .
, % of the Moon is Illuminated

Today's Extremes

State Highs State Lows

Community

WunderPhotos

Upload Photos

1,891,420 photos uploaded!

WunderBlog® & News

Nearby

Air Quality

  Air Quality AQ Index Pollutant
Not available.

Snow Depth

Station Depth Elevation

Earthquake Activity

City Distance Mag. Time & Date
Minimum magnitude displayed is 2.5.

Coastal Water Temperatures

Place Temperature

Stations

Nearby Weather Stations

Station Location Temp. Windchill Dew Point Humidity Wind Precip. Elev Updated Type
                   

Watches & Warnings

High Surf Advisory
Issued: 3:50 PM HST Feb. 7, 2016 – National Weather Service

... High surf advisory remains in effect until 6 PM HST Monday...

* surf... along north and west facing shores of Kauai and Niihau
and north facing shores of Oahu Molokai and Maui... 10 to 15
feet.

* Timing... through 6 PM HST Monday.

* Impacts... moderate... expect strong breaking waves... shore
break... and strong longshore and rip currents making swimming
difficult and dangerous.

Precautionary/preparedness actions... beachgoers... swimmers... and
surfers should heed all advice given by ocean safety officials
and exercise caution.